Itapemirim, Brazil
Current Conditions -  °F | °C
As of 11:15 PM on Thursday 30 Oct 2014 (Local Time) from SBCP Reporting Station
Clear Clear  
Wind Chill: 77°   Ceiling: Unl
Heat Index: 79°   Visibility: 6mi
Dew Point: 70°   Wind: 25mph
Humidity: 78%   Direction: 70°ENE
Pressure: 29.94"   Gusts: NA
Location:  21.01°S, 40.83°W
Report Text: SBCP 310115Z 07022KT CAVOK 25/21 Q1014
Loading
Personal Weather Stations






























Interactive Weather Map
Tropical Storm Tracking
New forecast layout! Learn more

10-Day Weather Forecast

Advertisements
Track Severe Weather on mobile